Time;durP1;ratioP1;P1;durP2;ratioP2;P2;SDS_P1;SDS_P2;PMS_P1;PMS_P2;Temp;Humidity;BMP_temperature;BMP_pressure;BME280_temperature;BME280_humidity;BME280_pressure;Samples;Min_cycle;Max_cycle;Signal;HPM_P1;HPM_P2
2023/05/07 00:00:09;;;;;;;15.82;14.10;;;;;;;14.65;95.09;101626.69;5017825;28;20030;-73
2023/05/07 00:02:35;;;;;;;16.13;13.73;;;;;;;14.66;95.11;101623.13;5031585;28;20045;-73
2023/05/07 00:05:02;;;;;;;15.98;14.13;;;;;;;14.64;94.82;101624.09;5018239;28;20042;-73
2023/05/07 00:07:27;;;;;;;16.55;14.02;;;;;;;14.63;94.92;101619.78;5016855;28;20322;-73
2023/05/07 00:09:53;;;;;;;19.48;13.52;;;;;;;14.62;94.86;101620.69;5017326;28;20372;-73
2023/05/07 00:12:18;;;;;;;15.70;13.15;;;;;;;14.61;94.65;101627.75;5017128;28;20052;-73
2023/05/07 00:14:44;;;;;;;14.50;12.52;;;;;;;14.59;94.58;101627.81;5017245;28;20049;-73
2023/05/07 00:17:09;;;;;;;15.57;13.63;;;;;;;14.58;94.87;101631.38;5017379;28;20349;-73
2023/05/07 00:19:35;;;;;;;16.80;13.30;;;;;;;14.57;94.57;101632.31;5021411;28;20232;-73
2023/05/07 00:22:00;;;;;;;15.27;12.90;;;;;;;14.55;94.97;101627.97;5024756;28;20112;-73
2023/05/07 00:24:26;;;;;;;16.38;13.15;;;;;;;14.54;94.81;101627.13;5020662;28;20244;-73
2023/05/07 00:26:52;;;;;;;15.75;13.90;;;;;;;14.53;94.84;101624.56;5021312;28;20033;-73
2023/05/07 00:29:18;;;;;;;17.08;13.27;;;;;;;14.54;94.41;101626.28;5015964;28;20040;-73
2023/05/07 00:31:43;;;;;;;17.85;14.15;;;;;;;14.52;94.57;101622.88;5016952;28;20046;-73
2023/05/07 00:34:08;;;;;;;16.08;14.20;;;;;;;14.49;94.62;101613.28;5017393;28;20033;-73
2023/05/07 00:36:34;;;;;;;20.02;15.98;;;;;;;14.51;94.75;101626.41;5016715;28;20049;-73
2023/05/07 00:39:01;;;;;;;18.02;14.57;;;;;;;14.49;94.73;101615.09;5016942;28;20045;-73
2023/05/07 00:41:27;;;;;;;19.70;16.20;;;;;;;14.48;94.52;101616.00;5017064;28;20280;-73
2023/05/07 00:43:53;;;;;;;20.45;15.65;;;;;;;14.47;94.75;101617.78;5017055;28;20214;-73
2023/05/07 00:46:22;;;;;;;18.27;15.63;;;;;;;14.46;94.36;101620.47;5016890;28;20096;-73
2023/05/07 00:48:49;;;;;;;18.02;15.43;;;;;;;14.45;94.68;101608.25;5016275;28;20615;-73
2023/05/07 00:51:15;;;;;;;17.90;15.63;;;;;;;14.44;94.64;101609.16;5018857;28;20340;-73
2023/05/07 00:53:40;;;;;;;19.25;15.65;;;;;;;14.43;94.42;101613.59;5019879;28;20038;-73
2023/05/07 00:56:07;;;;;;;18.02;15.60;;;;;;;14.43;94.68;101612.72;5020824;28;20048;-73
2023/05/07 00:58:33;;;;;;;16.88;14.52;;;;;;;14.40;94.80;101609.28;5020637;28;20077;-73
2023/05/07 01:04:20;;;;;;;18.20;15.00;;;;;;;14.38;94.63;101608.50;5025697;28;20105;-73
2023/05/07 01:06:46;;;;;;;16.83;14.48;;;;;;;14.38;94.49;101615.56;5028816;28;20245;-73
2023/05/07 01:09:12;;;;;;;16.17;14.30;;;;;;;14.37;94.48;101606.81;5020073;28;20096;-73
2023/05/07 01:11:39;;;;;;;15.32;13.63;;;;;;;14.36;94.66;101601.59;5020365;28;20069;-73
2023/05/07 01:14:05;;;;;;;15.55;13.52;;;;;;;14.35;94.50;101597.25;5020482;28;20041;-73
2023/05/07 01:16:31;;;;;;;15.02;13.43;;;;;;;14.33;94.66;101597.31;5020561;28;20046;-73
2023/05/07 01:18:57;;;;;;;15.35;13.60;;;;;;;14.32;94.71;101603.50;5020732;28;20104;-73
2023/05/07 01:21:26;;;;;;;16.23;13.88;;;;;;;14.31;95.17;101596.53;5020465;28;20045;-73
2023/05/07 01:23:53;;;;;;;14.48;12.95;;;;;;;14.30;94.97;101593.97;5019860;28;20029;-73
2023/05/07 01:26:19;;;;;;;16.45;14.10;;;;;;;14.29;95.12;101589.63;5020440;28;20273;-73
2023/05/07 01:28:45;;;;;;;17.77;14.27;;;;;;;14.28;95.05;101590.53;5020153;28;20274;-73
2023/05/07 01:31:13;;;;;;;14.77;13.07;;;;;;;14.26;95.33;101584.47;5018770;28;20194;-73
2023/05/07 01:33:41;;;;;;;13.98;11.75;;;;;;;14.26;95.22;101592.38;5018809;28;20044;-73
2023/05/07 01:36:08;;;;;;;16.00;13.18;;;;;;;14.24;95.55;101586.31;5020067;28;20042;-73
2023/05/07 01:38:36;;;;;;;16.92;14.50;;;;;;;14.22;95.98;101586.38;5019417;28;20340;-73
2023/05/07 01:41:02;;;;;;;14.52;12.98;;;;;;;14.20;95.92;101594.34;5019964;28;20068;-73
2023/05/07 01:43:28;;;;;;;18.17;14.65;;;;;;;14.20;95.94;101598.78;5019895;28;20042;-73
2023/05/07 01:45:54;;;;;;;14.98;13.38;;;;;;;14.17;96.15;101586.59;5019359;28;20041;-73
2023/05/07 01:48:20;;;;;;;15.73;13.10;;;;;;;14.16;96.21;101587.53;5020159;28;20042;-73
2023/05/07 01:50:46;;;;;;;15.68;13.85;;;;;;;14.14;96.18;101589.38;5019791;28;20029;-73
2023/05/07 01:53:11;;;;;;;13.48;11.98;;;;;;;14.14;96.28;101586.72;5019074;28;20025;-73
2023/05/07 01:55:37;;;;;;;17.95;14.20;;;;;;;14.14;96.48;101588.53;5019388;28;20060;-73
2023/05/07 01:58:03;;;;;;;16.77;13.52;;;;;;;14.12;96.72;101588.59;5019202;28;20336;-73
2023/05/07 02:00:28;;;;;;;17.08;13.80;;;;;;;14.14;96.34;101593.78;5019406;28;20041;-73
2023/05/07 02:02:54;;;;;;;15.52;13.93;;;;;;;14.12;96.62;101582.47;5018546;28;20049;-73
2023/05/07 02:05:19;;;;;;;21.42;15.82;;;;;;;14.12;96.94;101587.75;5018310;28;20385;-73
2023/05/07 02:07:45;;;;;;;14.40;12.88;;;;;;;14.12;96.82;101587.75;5017977;28;20286;-73
2023/05/07 02:10:10;;;;;;;18.05;14.63;;;;;;;14.12;97.15;101588.59;5019724;28;20048;-74
2023/05/07 02:12:36;;;;;;;17.27;14.98;;;;;;;14.10;97.16;101589.56;5019068;28;20361;-74
2023/05/07 02:15:01;;;;;;;19.45;15.82;;;;;;;14.10;97.35;101581.66;5019421;28;20042;-74
2023/05/07 02:17:27;;;;;;;20.65;16.83;;;;;;;14.08;97.43;101589.66;5019195;28;20353;-74
2023/05/07 02:19:52;;;;;;;16.00;14.30;;;;;;;14.09;97.59;101595.75;5019185;28;20065;-74
2023/05/07 02:22:18;;;;;;;15.27;13.68;;;;;;;14.09;97.66;101596.59;5019094;28;20144;-74
2023/05/07 02:24:44;;;;;;;15.38;12.80;;;;;;;14.09;97.53;101595.75;5018719;28;20045;-74
2023/05/07 02:27:09;;;;;;;15.32;13.73;;;;;;;14.11;97.42;101593.91;5019210;28;20045;-74
2023/05/07 02:29:35;;;;;;;20.55;16.88;;;;;;;14.11;97.23;101592.13;5018547;28;20116;-74
2023/05/07 02:32:00;;;;;;;19.25;15.00;;;;;;;14.10;97.17;101592.19;5018801;28;20045;-74
2023/05/07 02:34:26;;;;;;;15.05;13.43;;;;;;;14.11;97.25;101599.19;5018613;28;20172;-74
2023/05/07 02:36:52;;;;;;;16.42;13.35;;;;;;;14.10;97.42;101589.56;5018490;28;20049;-74
2023/05/07 02:39:17;;;;;;;15.48;13.88;;;;;;;14.09;97.20;101595.75;5017080;28;20038;-74
2023/05/07 02:41:42;;;;;;;15.75;14.18;;;;;;;14.11;97.23;101596.56;5017600;28;20045;-74
2023/05/07 02:44:08;;;;;;;16.77;13.30;;;;;;;14.10;97.00;101586.91;5018256;28;20038;-74
2023/05/07 02:46:34;;;;;;;15.73;13.98;;;;;;;14.10;97.03;101594.81;5018307;28;20056;-74
2023/05/07 02:48:59;;;;;;;18.95;15.23;;;;;;;14.09;97.12;101591.34;5019108;28;20065;-74
2023/05/07 02:51:25;;;;;;;17.52;15.73;;;;;;;14.10;97.23;101592.19;5018534;28;20045;-74
2023/05/07 02:53:51;;;;;;;15.82;13.93;;;;;;;14.09;97.45;101595.75;5018241;28;20036;-74
2023/05/07 02:56:16;;;;;;;14.05;12.65;;;;;;;14.08;97.69;101591.41;5018549;28;20038;-74
2023/05/07 02:58:42;;;;;;;18.50;16.55;;;;;;;14.09;97.79;101590.50;5018334;28;20042;-72
2023/05/07 03:01:08;;;;;;;15.90;14.27;;;;;;;14.06;97.94;101588.88;5018380;28;20041;-72
2023/05/07 03:03:33;;;;;;;18.25;16.35;;;;;;;14.06;98.15;101591.50;4998682;28;20331;-72
2023/05/07 03:05:59;;;;;;;17.80;15.45;;;;;;;14.06;98.17;101593.25;5017764;28;20064;-73
2023/05/07 03:08:24;;;;;;;15.75;14.20;;;;;;;14.06;98.58;101593.25;5000289;28;20045;-73
2023/05/07 03:10:50;;;;;;;15.98;14.38;;;;;;;14.05;98.53;101594.19;5015227;28;20365;-73
2023/05/07 03:13:16;;;;;;;18.50;15.13;;;;;;;14.05;98.84;101584.50;5017380;28;20041;-73
2023/05/07 03:15:41;;;;;;;15.70;14.10;;;;;;;14.05;98.89;101588.94;5017728;28;20041;-73
2023/05/07 03:18:07;;;;;;;13.75;12.38;;;;;;;14.05;98.78;101591.56;5018528;28;20053;-73
2023/05/07 03:20:32;;;;;;;16.85;15.15;;;;;;;14.06;98.79;101587.97;5017466;28;20060;-73
2023/05/07 03:22:58;;;;;;;15.30;13.80;;;;;;;14.06;99.17;101588.88;5018152;28;20260;-73
2023/05/07 03:25:23;;;;;;;14.50;13.10;;;;;;;14.07;99.20;101594.97;5017823;28;20048;-73
2023/05/07 03:27:48;;;;;;;16.13;14.43;;;;;;;14.06;99.12;101587.97;5018267;28;20034;-73
2023/05/07 03:30:14;;;;;;;13.75;12.52;;;;;;;14.06;99.22;101590.63;5017726;28;20305;-73
2023/05/07 03:32:39;;;;;;;13.93;12.63;;;;;;;14.06;99.17;101601.16;5029495;28;20563;-72
2023/05/07 03:35:05;;;;;;;14.60;13.20;;;;;;;14.05;98.84;101592.41;5029486;28;20038;-72
2023/05/07 03:37:31;;;;;;;15.07;13.43;;;;;;;14.06;98.99;101590.63;5017895;28;20431;-72
2023/05/07 03:39:56;;;;;;;16.20;14.48;;;;;;;14.06;98.97;101582.72;5017432;28;20041;-73
2023/05/07 03:42:21;;;;;;;17.95;15.93;;;;;;;14.06;98.87;101587.97;5017754;28;20042;-73
2023/05/07 03:44:47;;;;;;;15.32;13.73;;;;;;;14.05;99.49;101584.50;5017356;28;20049;-73
2023/05/07 03:47:13;;;;;;;17.63;15.52;;;;;;;14.04;99.16;101588.03;5017764;28;20100;-73
2023/05/07 03:49:39;;;;;;;18.60;15.10;;;;;;;14.04;99.52;101592.47;5017326;28;20096;-73
2023/05/07 03:52:05;;;;;;;14.63;13.07;;;;;;;14.02;99.62;101588.13;5017690;28;20265;-73
2023/05/07 03:54:31;;;;;;;17.55;15.70;;;;;;;14.02;99.78;101590.78;5017182;28;20048;-73
2023/05/07 03:56:56;;;;;;;16.17;13.50;;;;;;;14.02;99.82;101595.16;5017114;28;20034;-73
2023/05/07 03:59:22;;;;;;;14.13;12.75;;;;;;;14.00;99.68;101592.59;5017299;28;20234;-73
2023/05/07 04:01:48;;;;;;;15.80;14.20;;;;;;;14.01;99.88;101593.47;5017224;28;20065;-73
2023/05/07 04:04:14;;;;;;;15.77;14.02;;;;;;;14.00;100.00;101597.84;5017290;28;20296;-73
2023/05/07 04:06:39;;;;;;;13.38;12.07;;;;;;;14.00;100.00;101604.91;5017212;28;20101;-73
2023/05/07 04:09:05;;;;;;;12.90;11.75;;;;;;;14.01;100.00;101604.84;5016991;28;20056;-73
2023/05/07 04:11:30;;;;;;;13.90;12.68;;;;;;;14.02;100.00;101603.06;5016811;28;20037;-73
2023/05/07 04:13:55;;;;;;;12.68;11.35;;;;;;;14.02;100.00;101603.94;5017280;28;20038;-73
2023/05/07 04:16:21;;;;;;;12.75;11.35;;;;;;;14.01;99.90;101610.13;5017094;28;20053;-73
2023/05/07 04:18:46;;;;;;;16.42;14.73;;;;;;;14.01;100.00;101604.84;5016946;28;20395;-73
2023/05/07 04:21:20;;;;;;;14.60;13.10;;;;;;;14.01;100.00;101602.22;5016001;28;20240;-73
2023/05/07 04:23:47;;;;;;;13.40;12.00;;;;;;;14.01;100.00;101598.72;5017981;28;20041;-73
2023/05/07 04:26:13;;;;;;;13.48;12.13;;;;;;;14.00;99.79;101608.38;5021507;28;20329;-73
2023/05/07 04:28:39;;;;;;;16.65;14.18;;;;;;;13.99;100.00;101598.78;5020682;28;20113;-73
2023/05/07 04:31:05;;;;;;;13.60;12.30;;;;;;;14.00;99.98;101607.53;5021274;28;20045;-73
2023/05/07 04:33:31;;;;;;;16.45;14.02;;;;;;;13.98;100.00;101604.97;5021057;28;20089;-73
2023/05/07 04:35:57;;;;;;;12.45;11.20;;;;;;;13.99;100.00;101600.59;5020932;28;20049;-73
2023/05/07 04:38:23;;;;;;;12.00;11.00;;;;;;;13.99;100.00;101604.06;5020617;28;20029;-72
2023/05/07 04:40:48;;;;;;;13.02;11.73;;;;;;;14.00;100.00;101610.19;5020737;28;20037;-72
2023/05/07 04:43:14;;;;;;;11.38;10.30;;;;;;;14.00;100.00;101603.13;5021028;28;20068;-72
2023/05/07 04:45:41;;;;;;;10.38;9.57;;;;;;;14.00;100.00;101611.03;5020701;28;20048;-72
2023/05/07 04:48:07;;;;;;;11.18;10.10;;;;;;;14.01;99.96;101615.38;5003555;28;20021;-72
2023/05/07 04:50:32;;;;;;;10.60;9.57;;;;;;;14.04;99.88;101610.91;5020716;28;20042;-72
2023/05/07 04:52:58;;;;;;;11.07;10.18;;;;;;;14.04;99.77;101605.63;5020985;28;20050;-72
2023/05/07 04:55:23;;;;;;;11.02;10.00;;;;;;;14.04;99.71;101608.28;5020259;28;20064;-72
2023/05/07 04:57:49;;;;;;;10.07;9.32;;;;;;;14.04;99.53;101603.84;5020581;28;20038;-72
2023/05/07 05:00:15;;;;;;;10.27;9.48;;;;;;;14.05;99.65;101607.38;5019182;28;20573;-72
2023/05/07 05:02:40;;;;;;;9.80;9.00;;;;;;;14.05;99.65;101608.22;5030218;28;20280;-72
2023/05/07 05:05:07;;;;;;;10.52;9.75;;;;;;;14.05;99.69;101613.47;5020643;28;20033;-72
2023/05/07 05:07:32;;;;;;;10.32;9.52;;;;;;;14.07;99.70;101613.41;5019935;28;20340;-73
2023/05/07 05:09:57;;;;;;;10.18;9.27;;;;;;;14.06;99.36;101620.47;5020204;28;20038;-73
2023/05/07 05:12:23;;;;;;;9.98;9.10;;;;;;;14.07;99.32;101619.53;5020372;28;20148;-73
2023/05/07 05:14:48;;;;;;;10.10;9.20;;;;;;;14.07;99.50;101622.16;5020413;28;20041;-72
2023/05/07 05:17:14;;;;;;;10.93;9.90;;;;;;;14.08;99.61;101625.66;5019880;28;20048;-72
2023/05/07 05:19:39;;;;;;;13.40;11.98;;;;;;;14.07;99.55;101619.53;5018256;28;20120;-72
2023/05/07 05:22:05;;;;;;;11.35;10.25;;;;;;;14.07;99.53;101619.53;5020550;28;20042;-72
2023/05/07 05:24:31;;;;;;;11.82;10.77;;;;;;;14.07;99.98;101622.16;5020069;28;20554;-72
2023/05/07 05:26:56;;;;;;;10.77;9.77;;;;;;;14.07;100.00;101630.06;4998666;28;20042;-72
2023/05/07 05:29:22;;;;;;;15.45;12.68;;;;;;;14.08;99.95;101633.53;5019975;28;20353;-72
2023/05/07 05:31:47;;;;;;;48.08;27.63;;;;;;;14.09;100.00;101630.00;5018099;28;20446;-72
2023/05/07 05:34:13;;;;;;;129.10;59.95;;;;;;;14.11;100.00;101646.59;5020003;28;20333;-72
2023/05/07 05:36:38;;;;;;;73.40;34.50;;;;;;;14.09;100.00;101632.63;5018395;28;20451;-72
2023/05/07 05:39:04;;;;;;;85.45;40.15;;;;;;;14.09;100.00;101641.38;5019961;28;20109;-72
2023/05/07 05:41:30;;;;;;;66.40;34.67;;;;;;;14.11;100.00;101651.84;5026511;28;20045;-72
2023/05/07 05:43:55;;;;;;;72.95;36.50;;;;;;;14.11;100.00;101646.59;5019725;28;20252;-72
2023/05/07 05:46:21;;;;;;;67.75;33.97;;;;;;;14.13;100.00;101650.00;5019558;28;20487;-72
2023/05/07 05:48:46;;;;;;;68.68;34.15;;;;;;;14.14;100.00;101644.69;5018333;28;20040;-72
2023/05/07 05:51:12;;;;;;;43.75;30.30;;;;;;;14.15;100.00;101646.41;5001840;28;20050;-72
2023/05/07 05:53:37;;;;;;;48.80;29.40;;;;;;;14.18;100.00;101653.31;5019216;28;20038;-72
2023/05/07 05:56:03;;;;;;;39.53;24.15;;;;;;;14.17;100.00;101657.72;5019498;28;20119;-72
2023/05/07 05:58:28;;;;;;;36.90;25.17;;;;;;;14.17;100.00;101652.47;5018647;28;20034;-72
2023/05/07 06:00:54;;;;;;;56.45;27.23;;;;;;;14.19;100.00;101661.16;5019241;28;20391;-72
2023/05/07 06:03:19;;;;;;;36.13;20.15;;;;;;;14.20;100.00;101662.00;5018971;28;20136;-72
2023/05/07 06:05:45;;;;;;;34.65;20.58;;;;;;;14.21;100.00;101658.47;5027554;28;20045;-72
2023/05/07 06:08:10;;;;;;;33.20;20.05;;;;;;;14.21;100.00;101664.56;5021380;28;20069;-72
2023/05/07 06:10:37;;;;;;;29.38;18.30;;;;;;;14.23;100.00;101658.41;5017344;28;20049;-72
2023/05/07 06:13:02;;;;;;;22.60;15.10;;;;;;;14.24;100.00;101662.72;5018373;28;20229;-72
2023/05/07 06:15:27;;;;;;;25.25;18.88;;;;;;;14.24;100.00;101660.94;5018641;28;20033;-72
2023/05/07 06:17:55;;;;;;;20.90;16.85;;;;;;;14.27;100.00;101663.44;5018465;28;20065;-72
2023/05/07 06:20:21;;;;;;;18.95;14.85;;;;;;;14.27;100.00;101658.19;5018721;28;20062;-73
2023/05/07 06:22:46;;;;;;;24.70;16.55;;;;;;;14.28;100.00;101652.00;5018607;28;20095;-73
2023/05/07 06:25:12;;;;;;;17.55;13.75;;;;;;;14.30;100.00;101657.22;5018343;28;20148;-73
2023/05/07 06:27:39;;;;;;;17.02;14.85;;;;;;;14.31;100.00;101657.13;4999735;28;20029;-73
2023/05/07 06:30:05;;;;;;;22.58;15.40;;;;;;;14.32;100.00;101655.38;5017617;28;20030;-73
2023/05/07 06:32:31;;;;;;;21.20;15.95;;;;;;;14.34;100.00;101650.88;5006637;28;20061;-73
2023/05/07 06:34:56;;;;;;;18.48;15.23;;;;;;;14.36;100.00;101660.41;5018471;28;20041;-73
2023/05/07 06:37:21;;;;;;;19.17;13.90;;;;;;;14.38;100.00;101655.94;5016600;28;20037;-73
2023/05/07 06:39:47;;;;;;;20.27;15.55;;;;;;;14.42;100.00;101653.19;5017213;28;20049;-73
2023/05/07 06:42:12;;;;;;;17.05;15.27;;;;;;;14.45;100.00;101655.69;5018521;28;20042;-73
2023/05/07 06:44:37;;;;;;;19.85;16.00;;;;;;;14.48;100.00;101661.69;5018302;28;20038;-73
2023/05/07 06:47:03;;;;;;;17.80;15.00;;;;;;;14.51;100.00;101663.31;5016893;28;20129;-73
2023/05/07 06:49:28;;;;;;;21.90;17.20;;;;;;;14.53;100.00;101658.81;5018023;28;20029;-73
2023/05/07 06:51:54;;;;;;;19.65;16.38;;;;;;;14.55;100.00;101660.47;5017847;28;20194;-73
2023/05/07 06:54:20;;;;;;;19.45;16.05;;;;;;;14.57;100.00;101653.41;5018152;28;20049;-72
2023/05/07 06:56:45;;;;;;;20.63;16.63;;;;;;;14.58;100.00;101663.00;5016070;28;20045;-73
2023/05/07 06:59:11;;;;;;;19.38;16.85;;;;;;;14.59;100.00;101667.34;5017843;28;20061;-73
2023/05/07 07:01:37;;;;;;;20.10;17.13;;;;;;;14.60;100.00;101670.84;5016163;28;20034;-73
2023/05/07 07:04:02;;;;;;;21.27;17.83;;;;;;;14.60;100.00;101670.84;5016476;28;20029;-73
2023/05/07 07:06:28;;;;;;;18.70;16.05;;;;;;;14.59;100.00;101663.88;5014426;28;20256;-73
2023/05/07 07:08:53;;;;;;;25.83;18.50;;;;;;;14.60;100.00;101660.28;5016738;28;20049;-73
2023/05/07 07:11:19;;;;;;;18.27;16.27;;;;;;;14.63;100.00;101661.97;5017875;28;20024;-73
2023/05/07 07:13:44;;;;;;;23.40;18.27;;;;;;;14.66;100.00;101667.06;5016714;28;20041;-73
2023/05/07 07:16:09;;;;;;;17.20;15.35;;;;;;;14.68;100.00;101660.81;5018453;28;20220;-73
2023/05/07 07:18:35;;;;;;;22.08;17.15;;;;;;;14.72;100.00;101662.38;5015643;28;20072;-73
2023/05/07 07:21:01;;;;;;;22.30;17.70;;;;;;;14.78;100.00;101669.16;5016510;28;20064;-73
2023/05/07 07:23:26;;;;;;;22.13;17.02;;;;;;;14.81;100.00;101666.41;5015260;28;20229;-73
2023/05/07 07:25:52;;;;;;;20.23;16.38;;;;;;;14.88;100.00;101673.09;5017966;28;20044;-73
2023/05/07 07:28:17;;;;;;;18.98;15.75;;;;;;;14.96;100.00;101678.03;5012415;28;20034;-73
2023/05/07 07:30:43;;;;;;;17.98;15.90;;;;;;;15.02;100.00;101675.09;5013482;28;20041;-73
2023/05/07 07:33:08;;;;;;;18.83;16.17;;;;;;;15.06;100.00;101674.06;5016063;28;20384;-73
2023/05/07 07:35:34;;;;;;;19.02;15.77;;;;;;;15.10;100.00;101670.34;5013584;28;20265;-73
2023/05/07 07:38:00;;;;;;;21.17;16.02;;;;;;;15.15;100.00;101676.25;5015955;28;20329;-73
2023/05/07 07:40:25;;;;;;;15.18;13.55;;;;;;;15.17;100.00;101681.44;5017241;28;20034;-73
2023/05/07 07:42:51;;;;;;;15.90;14.15;;;;;;;15.21;100.00;101676.88;5017477;28;20028;-74
2023/05/07 07:45:17;;;;;;;14.63;13.20;;;;;;;15.24;100.00;101677.59;5017604;28;20069;-75
2023/05/07 07:47:42;;;;;;;18.05;15.20;;;;;;;15.28;100.00;101675.66;4999129;28;20042;-74
2023/05/07 07:50:08;;;;;;;16.08;13.27;;;;;;;15.30;100.00;101674.69;5014580;28;20042;-75
2023/05/07 07:52:34;;;;;;;14.95;13.32;;;;;;;15.33;100.00;101676.31;5013973;28;20400;-75
2023/05/07 07:55:00;;;;;;;17.25;13.65;;;;;;;15.36;100.00;101673.53;5013998;28;20041;-75
2023/05/07 07:57:25;;;;;;;17.20;14.35;;;;;;;15.41;100.00;101675.94;5013595;28;20274;-75
2023/05/07 07:59:51;;;;;;;15.70;14.02;;;;;;;15.46;100.00;101668.66;5012940;28;20050;-75
2023/05/07 08:02:17;;;;;;;17.10;13.05;;;;;;;15.51;100.00;101671.94;5014182;28;20206;-75
2023/05/07 08:04:45;;;;;;;15.98;14.15;;;;;;;15.57;100.00;101676.06;5008835;28;20033;-75
2023/05/07 08:07:11;;;;;;;16.25;14.05;;;;;;;15.62;100.00;101674.06;5015540;28;20361;-75
2023/05/07 08:09:37;;;;;;;14.70;13.20;;;;;;;15.67;100.00;101677.34;5014723;28;20405;-75
2023/05/07 08:12:04;;;;;;;14.20;12.80;;;;;;;15.73;100.00;101674.38;5015401;28;20049;-75
2023/05/07 08:14:29;;;;;;;16.52;12.95;;;;;;;15.82;100.00;101681.88;5015185;28;20038;-75
2023/05/07 08:16:55;;;;;;;16.35;13.75;;;;;;;15.88;100.00;101676.31;5015213;28;20214;-75
2023/05/07 08:19:21;;;;;;;16.58;12.85;;;;;;;15.93;100.00;101682.22;5015223;28;20057;-75
2023/05/07 08:21:47;;;;;;;18.17;12.85;;;;;;;15.98;100.00;101684.63;5015011;28;20068;-75
2023/05/07 08:24:16;;;;;;;15.48;12.35;;;;;;;16.03;100.00;101689.69;5015023;28;20675;-75
2023/05/07 08:26:42;;;;;;;19.50;12.38;;;;;;;16.05;100.00;101690.47;5015127;28;20049;-75
2023/05/07 08:29:08;;;;;;;14.68;12.55;;;;;;;16.07;100.00;101696.53;5015386;28;20217;-75
2023/05/07 08:31:33;;;;;;;16.90;12.73;;;;;;;16.08;100.00;101693.81;5014435;28;20095;-74
2023/05/07 08:33:59;;;;;;;18.63;13.48;;;;;;;16.10;100.00;101702.50;5015469;28;20038;-75
2023/05/07 08:36:25;;;;;;;13.65;11.63;;;;;;;16.14;100.00;101697.94;5015189;28;20103;-75
2023/05/07 08:38:51;;;;;;;12.52;11.23;;;;;;;16.19;100.00;101711.78;5014634;28;20045;-75
2023/05/07 08:41:17;;;;;;;19.38;14.10;;;;;;;16.22;100.00;101708.94;5014918;28;20045;-73
2023/05/07 08:43:47;;;;;;;18.15;14.35;;;;;;;16.26;100.00;101713.19;5014779;28;20042;-72
2023/05/07 08:46:17;;;;;;;16.77;15.07;;;;;;;16.31;100.00;101711.13;5028066;28;20220;-72
2023/05/07 08:48:42;;;;;;;21.65;14.57;;;;;;;16.38;100.00;101708.19;5023213;28;20033;-75
2023/05/07 08:51:13;;;;;;;19.02;14.68;;;;;;;16.42;100.00;101704.44;5015411;28;20046;-75
2023/05/07 08:53:41;;;;;;;21.10;15.50;;;;;;;16.47;100.00;101713.84;5014787;28;20042;-75
2023/05/07 08:56:08;;;;;;;17.20;15.43;;;;;;;16.51;100.00;101712.75;5020922;28;20079;-75
2023/05/07 08:58:34;;;;;;;21.67;16.92;;;;;;;16.54;100.00;101705.63;5024574;28;20046;-75
2023/05/07 09:01:06;;;;;;;19.88;16.33;;;;;;;16.58;100.00;101712.44;5015062;28;20034;-75
2023/05/07 09:03:32;;;;;;;19.17;15.93;;;;;;;16.62;100.00;101708.69;5014540;28;20055;-75
2023/05/07 09:05:57;;;;;;;16.88;15.20;;;;;;;16.64;100.00;101715.59;5015511;28;20133;-75
2023/05/07 09:08:27;;;;;;;21.13;16.55;;;;;;;16.69;99.00;101720.66;5014594;28;20045;-75
2023/05/07 09:10:53;;;;;;;19.00;15.20;;;;;;;16.75;98.46;101717.69;5015546;28;20312;-75
2023/05/07 09:13:19;;;;;;;18.80;15.90;;;;;;;16.84;99.23;101722.53;5018010;28;20048;-75
2023/05/07 09:15:45;;;;;;;18.95;16.30;;;;;;;16.91;98.64;101723.06;5018317;28;20053;-75
2023/05/07 09:18:11;;;;;;;21.75;17.58;;;;;;;16.97;98.77;101716.59;5017529;28;20037;-75
2023/05/07 09:20:37;;;;;;;18.08;16.05;;;;;;;17.02;98.08;101720.69;5016157;28;20084;-75
2023/05/07 09:23:03;;;;;;;18.02;14.95;;;;;;;17.07;96.89;101717.81;5017963;28;20085;-75
2023/05/07 09:25:30;;;;;;;20.52;13.65;;;;;;;17.10;95.54;101720.31;5017896;28;20261;-75
2023/05/07 09:27:56;;;;;;;14.05;12.18;;;;;;;17.13;95.43;101721.91;5017756;28;20349;-75
2023/05/07 09:30:21;;;;;;;14.00;12.27;;;;;;;17.14;95.51;101726.28;5018244;28;20045;-75
2023/05/07 09:32:47;;;;;;;15.68;12.63;;;;;;;17.16;96.21;101724.41;5017818;28;20368;-75
2023/05/07 09:35:21;;;;;;;16.42;13.85;;;;;;;17.15;95.94;101726.16;5017345;28;20045;-75
2023/05/07 09:37:47;;;;;;;14.73;13.20;;;;;;;17.14;94.51;101721.00;5017428;28;20106;-74
2023/05/07 09:40:31;;;;;;;15.35;13.68;;;;;;;17.15;94.97;101731.47;5017007;28;20045;-74
2023/05/07 09:43:08;;;;;;;16.33;14.20;;;;;;;17.17;95.66;101729.63;5014427;28;20042;-74
2023/05/07 09:45:33;;;;;;;19.13;13.95;;;;;;;17.21;96.05;101725.84;5016817;28;20284;-74
2023/05/07 09:47:59;;;;;;;18.30;14.20;;;;;;;17.26;96.05;101723.81;5009903;28;20041;-74
2023/05/07 09:50:30;;;;;;;13.57;12.18;;;;;;;17.31;94.82;101728.84;5016371;28;20045;-74
2023/05/07 09:52:56;;;;;;;12.63;11.35;;;;;;;17.33;93.71;101724.31;5015642;28;20103;-74
2023/05/07 09:55:22;;;;;;;13.23;11.15;;;;;;;17.38;93.62;101724.91;5010182;28;20282;-74
2023/05/07 09:57:52;;;;;;;12.68;11.30;;;;;;;17.43;93.51;101729.97;5012420;28;20361;-74
2023/05/07 10:00:19;;;;;;;15.35;10.82;;;;;;;17.45;92.52;101739.53;5010327;28;20037;-74
2023/05/07 10:02:51;;;;;;;14.18;11.85;;;;;;;17.49;91.60;101739.38;5012052;28;20037;-74
2023/05/07 10:05:20;;;;;;;16.77;11.80;;;;;;;17.51;91.55;101740.13;5013378;28;20052;-75
2023/05/07 10:07:46;;;;;;;15.10;11.43;;;;;;;17.54;90.60;101734.69;5015505;28;20277;-74
2023/05/07 10:10:12;;;;;;;12.35;10.23;;;;;;;17.58;89.32;101734.41;5013212;28;20404;-74
2023/05/07 10:12:40;;;;;;;13.68;11.50;;;;;;;17.62;88.99;101733.28;5012446;28;20128;-74
2023/05/07 10:15:06;;;;;;;15.32;10.88;;;;;;;17.65;88.92;101734.91;5010410;28;20220;-74
2023/05/07 10:17:37;;;;;;;13.95;9.82;;;;;;;17.71;89.42;101728.41;5011906;28;20042;-74
2023/05/07 10:20:03;;;;;;;10.98;9.10;;;;;;;17.79;88.84;101736.78;5007606;28;20053;-74
2023/05/07 10:22:32;;;;;;;13.55;9.98;;;;;;;17.87;86.77;101728.44;5010496;28;20104;-74
2023/05/07 10:25:02;;;;;;;10.10;8.70;;;;;;;17.93;87.74;101738.69;5012792;28;20068;-74
2023/05/07 10:27:29;;;;;;;9.20;8.13;;;;;;;17.97;86.60;101732.25;5012158;28;20398;-74
2023/05/07 10:30:26;;;;;;;9.27;7.32;;;;;;;17.99;86.63;101727.72;5014763;28;20342;-74
2023/05/07 10:32:56;;;;;;;6.95;6.25;;;;;;;18.02;86.09;101735.50;5014614;28;20042;-74
2023/05/07 10:35:25;;;;;;;7.82;6.82;;;;;;;18.05;85.88;101737.97;5014497;28;20030;-74
2023/05/07 10:37:51;;;;;;;7.50;6.60;;;;;;;18.07;85.98;101733.44;5014135;28;20257;-74
2023/05/07 10:40:20;;;;;;;6.70;6.00;;;;;;;18.10;87.01;101741.22;5014948;28;20040;-74
2023/05/07 10:42:55;;;;;;;7.07;6.05;;;;;;;18.12;87.65;101733.16;5013572;28;20104;-74
2023/05/07 10:45:22;;;;;;;6.93;5.63;;;;;;;18.12;87.40;101741.97;5012588;28;20040;-75
2023/05/07 10:48:17;;;;;;;8.25;6.10;;;;;;;18.10;84.42;101741.22;5014754;28;20510;-74
2023/05/07 10:50:44;;;;;;;6.25;5.53;;;;;;;18.10;85.83;101741.22;5011299;28;20353;-74
2023/05/07 10:53:19;;;;;;;7.32;6.25;;;;;;;18.08;84.92;101753.72;5014010;28;20033;-74
2023/05/07 10:55:49;;;;;;;9.02;6.82;;;;;;;18.08;85.93;101750.19;5013522;28;20220;-74
2023/05/07 10:58:31;;;;;;;12.70;7.10;;;;;;;18.05;83.94;101755.69;5008250;28;20033;-75
2023/05/07 11:01:01;;;;;;;11.50;5.75;;;;;;;18.04;85.10;101754.81;5013512;28;20139;-75
2023/05/07 11:03:27;;;;;;;6.88;5.63;;;;;;;18.05;85.66;101745.09;5012356;28;20041;-74
2023/05/07 11:06:10;;;;;;;8.93;6.53;;;;;;;18.05;84.56;101750.38;5011715;28;20037;-74